createdAt,value
2019-05-20T00:03:34.023Z,12.30
2019-05-20T00:08:38.259Z,12.65
2019-05-20T00:13:42.559Z,13.10
2019-05-20T00:18:53.015Z,13.50
2019-05-20T00:24:03.381Z,13.08
2019-05-20T00:29:13.896Z,13.48
2019-05-20T00:34:17.298Z,14.80
2019-05-20T00:39:25.973Z,13.72
2019-05-20T00:44:33.379Z,13.90
2019-05-20T00:49:40.520Z,14.95
2019-05-20T00:54:44.995Z,15.43
2019-05-20T00:59:49.385Z,14.15
2019-05-20T01:04:53.793Z,13.90
2019-05-20T01:10:02.316Z,13.60
2019-05-20T01:15:19.364Z,13.35
2019-05-20T01:20:23.524Z,14.98
2019-05-20T01:25:31.330Z,12.68
2019-05-20T01:30:39.140Z,14.53
2019-05-20T01:35:43.509Z,13.22
2019-05-20T01:40:48.040Z,12.15
2019-05-20T01:45:56.380Z,13.48
2019-05-20T01:51:00.810Z,13.03
2019-05-20T01:56:09.119Z,13.95
2019-05-20T02:01:15.180Z,14.13
2019-05-20T02:06:19.593Z,13.70
2019-05-20T02:11:42.932Z,15.28
2019-05-20T02:16:47.568Z,14.87
2019-05-20T02:26:58.212Z,13.85
2019-05-20T02:32:02.578Z,14.18
2019-05-20T02:37:09.076Z,14.35
2019-05-20T02:42:14.555Z,13.83
2019-05-20T02:47:18.675Z,15.20
2019-05-20T02:52:28.287Z,15.25
2019-05-20T02:57:33.485Z,15.00
2019-05-20T03:02:37.613Z,16.07
2019-05-20T03:07:41.601Z,18.52
2019-05-20T03:12:46.204Z,16.57
2019-05-20T03:22:53.576Z,16.45
2019-05-20T03:27:57.889Z,17.67
2019-05-20T03:33:04.755Z,18.15
2019-05-20T03:38:11.527Z,18.62
2019-05-20T03:43:18.075Z,19.15
2019-05-20T03:48:22.779Z,19.50
2019-05-20T03:53:28.387Z,19.37
2019-05-20T03:58:33.046Z,19.30
2019-05-20T04:09:05.073Z,18.10
2019-05-20T04:14:12.440Z,18.77
2019-05-20T04:19:16.508Z,19.40
2019-05-20T04:24:28.680Z,18.42
2019-05-20T04:29:32.762Z,18.87
2019-05-20T04:34:36.890Z,18.57
2019-05-20T04:39:41.075Z,19.70
2019-05-20T04:44:45.157Z,19.15
2019-05-20T04:49:49.252Z,18.75
2019-05-20T04:54:53.540Z,19.37
2019-05-20T05:00:00.604Z,18.87
2019-05-20T05:05:05.144Z,19.50
2019-05-20T05:10:10.058Z,19.00
2019-05-20T05:15:14.549Z,18.98
2019-05-20T05:20:18.907Z,19.12
2019-05-20T05:25:23.053Z,19.30
2019-05-20T05:30:27.374Z,19.77
2019-05-20T05:35:31.845Z,20.60
2019-05-20T05:40:35.941Z,22.50
2019-05-20T05:45:40.109Z,24.15
2019-05-20T05:50:44.209Z,21.17
2019-05-20T05:55:48.615Z,21.73
2019-05-20T06:00:53.027Z,20.82
2019-05-20T06:06:11.335Z,20.05
2019-05-20T06:11:03.471Z,21.12
2019-05-20T06:16:07.633Z,20.90
2019-05-20T06:21:12.100Z,20.90
2019-05-20T06:26:18.007Z,21.23
2019-05-20T06:31:23.330Z,21.52
2019-05-20T06:36:27.513Z,19.25
2019-05-20T06:41:31.977Z,19.95
2019-05-20T06:46:35.990Z,21.65
2019-05-20T06:51:44.232Z,21.85
2019-05-20T06:56:48.704Z,22.35
2019-05-20T07:06:56.308Z,22.00
2019-05-20T07:12:00.456Z,22.55
2019-05-20T07:17:08.086Z,22.07
2019-05-20T07:22:12.769Z,21.60
2019-05-20T07:32:22.439Z,20.60
2019-05-20T07:37:26.617Z,19.87
2019-05-20T07:42:33.741Z,19.05
2019-05-20T07:47:38.055Z,21.25
2019-05-20T07:52:46.549Z,19.48
2019-05-20T07:57:53.467Z,20.75
2019-05-20T08:02:58.227Z,21.00
2019-05-20T08:08:06.521Z,19.07
2019-05-20T08:13:14.904Z,19.92
2019-05-20T08:18:24.640Z,19.45
2019-05-20T08:23:31.459Z,20.43
2019-05-20T08:28:36.672Z,18.20
2019-05-20T08:33:41.992Z,21.12
2019-05-20T08:38:48.888Z,21.25
2019-05-20T08:43:57.044Z,20.95
2019-05-20T08:49:04.446Z,23.80
2019-05-20T08:54:08.585Z,23.67
2019-05-20T08:59:16.589Z,23.07
2019-05-20T09:04:20.720Z,24.57
2019-05-20T09:09:25.295Z,24.40
2019-05-20T09:19:35.013Z,24.05
2019-05-20T09:24:42.170Z,23.85
2019-05-20T09:29:46.270Z,24.50
2019-05-20T09:34:50.770Z,25.75
2019-05-20T09:39:57.410Z,25.45
2019-05-20T09:45:07.479Z,24.90
2019-05-20T09:50:13.679Z,25.50
2019-05-20T09:55:22.803Z,25.75
2019-05-20T10:00:29.179Z,25.08
2019-05-20T10:05:37.179Z,26.87
2019-05-20T10:10:41.774Z,23.83
2019-05-20T10:15:48.508Z,25.70
2019-05-20T10:20:52.651Z,25.40
2019-05-20T10:26:02.160Z,26.45
2019-05-20T10:31:10.850Z,24.45
2019-05-20T10:36:16.297Z,25.00
2019-05-20T10:41:24.291Z,27.15
2019-05-20T10:46:28.512Z,26.17
2019-05-20T10:51:32.694Z,23.30
2019-05-20T10:56:37.167Z,26.42
2019-05-20T11:01:42.652Z,27.02
2019-05-20T11:06:52.221Z,28.67
2019-05-20T11:11:56.147Z,25.25
2019-05-20T11:17:05.692Z,28.70
2019-05-20T11:22:11.158Z,29.18
2019-05-20T11:27:23.035Z,27.65
2019-05-20T11:32:30.974Z,29.12
2019-05-20T11:37:38.003Z,29.75
2019-05-20T11:42:45.818Z,29.12
2019-05-20T11:47:50.031Z,27.82
2019-05-20T11:52:57.013Z,27.52
2019-05-20T11:58:15.401Z,30.10
2019-05-20T12:03:07.770Z,28.85
2019-05-20T12:08:12.087Z,31.87
2019-05-20T12:13:16.224Z,32.60
2019-05-20T12:18:20.504Z,31.70
2019-05-20T12:23:24.933Z,28.55
2019-05-20T12:28:30.085Z,29.55
2019-05-20T12:33:34.642Z,30.32
2019-05-20T12:38:41.264Z,29.50
2019-05-20T12:43:45.522Z,31.23
2019-05-20T12:48:50.356Z,30.62
2019-05-20T12:53:54.680Z,31.20
2019-05-20T12:58:59.112Z,33.02
2019-05-20T13:04:03.164Z,33.20
2019-05-20T13:09:10.032Z,31.30
2019-05-20T13:14:13.838Z,32.60
2019-05-20T13:19:23.051Z,32.93
2019-05-20T13:24:27.069Z,33.00
2019-05-20T13:29:31.453Z,31.93
2019-05-20T13:34:38.901Z,34.78
2019-05-20T13:39:44.766Z,33.78
2019-05-20T13:44:56.175Z,32.50
2019-05-20T13:50:00.395Z,30.57
2019-05-20T13:55:05.115Z,30.00
2019-05-20T14:00:09.856Z,30.77
2019-05-20T14:05:14.546Z,30.92
2019-05-20T14:15:26.322Z,31.68
2019-05-20T14:20:30.731Z,30.62
2019-05-20T14:25:34.932Z,29.85
2019-05-20T14:30:39.824Z,46.18
2019-05-20T14:35:44.461Z,33.38
2019-05-20T14:45:51.748Z,29.67
2019-05-20T14:50:56.326Z,31.87
2019-05-20T14:56:01.216Z,30.62
2019-05-20T15:01:05.646Z,32.75
2019-05-20T15:06:09.917Z,30.72
2019-05-20T15:11:14.293Z,31.85
2019-05-20T15:16:18.509Z,28.47
2019-05-20T15:21:29.558Z,30.72
2019-05-20T15:26:38.679Z,29.95
2019-05-20T15:31:42.702Z,27.82
2019-05-20T15:36:47.085Z,28.38
2019-05-20T15:41:51.376Z,29.45
2019-05-20T15:46:58.073Z,28.73
2019-05-20T15:52:06.621Z,30.27
2019-05-20T15:57:12.252Z,31.65
2019-05-20T16:02:16.512Z,27.95
2019-05-20T16:07:23.510Z,28.50
2019-05-20T16:12:27.655Z,29.50
2019-05-20T16:17:32.294Z,26.25
2019-05-20T16:22:37.288Z,26.33
2019-05-20T16:27:46.376Z,27.00
2019-05-20T16:32:53.618Z,28.50
2019-05-20T16:37:58.017Z,28.17
2019-05-20T16:43:02.361Z,26.48
2019-05-20T16:48:13.771Z,27.22
2019-05-20T16:53:20.504Z,27.05
2019-05-20T16:58:24.546Z,27.05
2019-05-20T17:03:28.622Z,28.20
2019-05-20T17:08:34.043Z,25.37
2019-05-20T17:13:38.426Z,25.37
2019-05-20T17:18:42.615Z,28.15
2019-05-20T17:23:46.799Z,44.15
2019-05-20T17:28:50.932Z,27.90
2019-05-20T17:33:55.083Z,27.93
2019-05-20T17:38:59.722Z,27.50
2019-05-20T17:44:03.830Z,27.98
2019-05-20T17:49:09.864Z,29.48
2019-05-20T17:54:14.003Z,24.95
2019-05-20T17:59:22.597Z,26.55
2019-05-20T18:04:27.157Z,17.07
2019-05-20T18:14:39.096Z,9.33
2019-05-20T18:19:48.647Z,11.57
2019-05-20T18:24:52.906Z,12.40
2019-05-20T18:30:06.366Z,12.50
2019-05-20T18:35:16.610Z,14.03
2019-05-20T18:40:24.288Z,15.10
2019-05-20T18:51:23.049Z,22.32
2019-05-20T18:56:27.765Z,22.82
2019-05-20T19:01:55.775Z,21.27
2019-05-20T19:06:49.450Z,21.50
2019-05-20T19:11:53.995Z,21.82
2019-05-20T19:17:04.735Z,25.32
2019-05-20T19:22:14.410Z,26.73
2019-05-20T19:27:18.648Z,28.75
2019-05-20T19:32:23.566Z,27.82
2019-05-20T19:37:27.766Z,31.52
2019-05-20T19:42:33.125Z,28.00
2019-05-20T19:47:41.706Z,32.80
2019-05-20T19:52:48.517Z,31.68
2019-05-20T19:57:56.022Z,32.13
2019-05-20T20:03:00.186Z,33.40
2019-05-20T20:13:43.316Z,30.82
2019-05-20T20:18:49.244Z,31.42
2019-05-20T20:23:53.550Z,32.30
2019-05-20T20:28:57.856Z,31.07
2019-05-20T20:34:02.357Z,11.50
2019-05-20T20:44:33.319Z,32.13
2019-05-20T20:49:38.707Z,30.05
2019-05-20T20:54:43.075Z,31.02
2019-05-20T20:59:50.284Z,30.05
2019-05-20T21:04:55.121Z,32.98
2019-05-20T21:15:05.201Z,31.50
2019-05-20T21:20:13.780Z,31.40
2019-05-20T21:25:20.904Z,31.00
2019-05-20T21:30:31.951Z,31.23
2019-05-20T21:35:36.648Z,30.43
2019-05-20T21:40:41.306Z,27.52
2019-05-20T21:51:33.408Z,28.45
2019-05-20T21:56:39.153Z,26.00
2019-05-20T22:01:43.614Z,26.75
2019-05-20T22:06:55.126Z,25.52
2019-05-20T22:12:02.641Z,26.20
2019-05-20T22:17:07.100Z,28.05
2019-05-20T22:22:32.900Z,27.67
2019-05-20T22:27:38.660Z,26.27
2019-05-20T22:32:42.885Z,24.37
2019-05-20T22:37:48.093Z,22.95
2019-05-20T22:42:56.419Z,15.32
2019-05-20T22:48:00.669Z,18.57
2019-05-20T22:53:08.283Z,20.23
2019-05-20T22:58:12.375Z,19.25
2019-05-20T23:03:20.604Z,17.60
2019-05-20T23:08:31.815Z,19.20
2019-05-20T23:13:41.830Z,18.98
2019-05-20T23:18:50.331Z,19.73
2019-05-20T23:23:57.341Z,18.82
2019-05-20T23:29:06.435Z,18.25
2019-05-20T23:34:13.113Z,19.20
2019-05-20T23:39:17.037Z,18.62
2019-05-20T23:44:21.199Z,20.10
2019-05-20T23:49:31.943Z,18.17
2019-05-20T23:54:37.591Z,18.35
2019-05-20T23:59:42.050Z,20.68
